createdAt,value
2019-01-18T00:00:56.306Z,3.20
2019-01-18T00:03:23.816Z,3.03
2019-01-18T00:05:51.352Z,3.00
2019-01-18T00:08:18.827Z,2.80
2019-01-18T00:10:46.683Z,2.87
2019-01-18T00:13:14.243Z,2.87
2019-01-18T00:15:41.733Z,3.23
2019-01-18T00:18:09.548Z,2.90
2019-01-18T00:20:37.028Z,3.03
2019-01-18T00:23:04.846Z,3.20
2019-01-18T00:25:32.623Z,3.60
2019-01-18T00:28:00.147Z,2.57
2019-01-18T00:30:27.881Z,3.20
2019-01-18T00:32:55.438Z,3.00
2019-01-18T00:35:22.883Z,3.23
2019-01-18T00:37:50.375Z,3.10
2019-01-18T00:40:18.707Z,3.03
2019-01-18T00:42:46.233Z,3.37
2019-01-18T00:45:14.616Z,2.93
2019-01-18T00:47:42.100Z,2.77
2019-01-18T00:50:11.762Z,3.30
2019-01-18T00:52:39.328Z,2.57
2019-01-18T00:55:07.132Z,2.80
2019-01-18T00:57:34.661Z,2.73
2019-01-18T01:00:03.927Z,2.80
2019-01-18T01:02:31.475Z,2.80
2019-01-18T01:04:58.927Z,3.00
2019-01-18T01:07:26.405Z,2.33
2019-01-18T01:09:54.179Z,2.70
2019-01-18T01:12:21.664Z,3.30
2019-01-18T01:14:49.172Z,3.27
2019-01-18T01:17:16.696Z,2.83
2019-01-18T01:19:44.136Z,2.60
2019-01-18T01:22:11.632Z,3.63
2019-01-18T01:24:39.128Z,2.90
2019-01-18T01:27:06.612Z,2.90
2019-01-18T01:29:34.384Z,3.33
2019-01-18T01:32:01.932Z,3.33
2019-01-18T01:34:29.428Z,3.47
2019-01-18T01:36:57.277Z,2.87
2019-01-18T01:39:24.835Z,3.10
2019-01-18T01:41:52.347Z,3.63
2019-01-18T01:44:20.104Z,2.80
2019-01-18T01:46:50.504Z,3.80
2019-01-18T01:49:18.160Z,3.60
2019-01-18T01:51:45.915Z,3.10
2019-01-18T01:54:13.427Z,3.00
2019-01-18T01:56:40.905Z,3.07
2019-01-18T01:59:08.405Z,3.23
2019-01-18T02:01:36.165Z,3.30
2019-01-18T02:04:03.815Z,3.50
2019-01-18T02:06:31.331Z,3.10
2019-01-18T02:08:58.855Z,3.27
2019-01-18T02:11:26.368Z,3.63
2019-01-18T02:13:53.859Z,3.83
2019-01-18T02:16:21.331Z,3.77
2019-01-18T02:18:48.863Z,3.43
2019-01-18T02:21:16.357Z,4.40
2019-01-18T02:23:43.884Z,3.33
2019-01-18T02:26:11.659Z,3.47
2019-01-18T02:28:39.144Z,2.67
2019-01-18T02:31:06.703Z,2.80
2019-01-18T02:33:34.243Z,3.17
2019-01-18T02:36:01.935Z,3.30
2019-01-18T02:38:29.437Z,3.90
2019-01-18T02:40:56.948Z,3.97
2019-01-18T02:43:24.400Z,5.07
2019-01-18T02:45:51.960Z,4.40
2019-01-18T02:48:22.188Z,4.13
2019-01-18T02:50:49.980Z,4.30
2019-01-18T02:53:17.457Z,3.67
2019-01-18T02:55:45.008Z,5.00
2019-01-18T02:58:12.457Z,5.40
2019-01-18T03:00:39.961Z,3.80
2019-01-18T03:03:07.467Z,4.17
2019-01-18T03:05:35.108Z,4.80
2019-01-18T03:08:02.604Z,4.50
2019-01-18T03:10:30.336Z,4.87
2019-01-18T03:12:57.813Z,4.40
2019-01-18T03:15:25.314Z,4.60
2019-01-18T03:17:52.886Z,4.10
2019-01-18T03:20:20.731Z,4.47
2019-01-18T03:22:48.202Z,5.77
2019-01-18T03:25:18.212Z,4.40
2019-01-18T03:27:45.667Z,4.33
2019-01-18T03:30:18.462Z,4.70
2019-01-18T03:32:44.194Z,3.33
2019-01-18T03:35:13.064Z,4.10
2019-01-18T03:37:40.549Z,3.23
2019-01-18T03:40:09.677Z,4.17
2019-01-18T03:42:37.587Z,3.97
2019-01-18T03:45:06.662Z,3.90
2019-01-18T03:47:34.150Z,4.23
2019-01-18T03:50:01.866Z,5.60
2019-01-18T03:52:29.365Z,4.57
2019-01-18T03:54:57.039Z,5.23
2019-01-18T03:57:24.541Z,4.33
2019-01-18T03:59:52.070Z,5.13
2019-01-18T04:02:19.550Z,4.83
2019-01-18T04:04:47.070Z,4.80
2019-01-18T04:07:14.545Z,4.30
2019-01-18T04:09:42.032Z,3.47
2019-01-18T04:12:09.569Z,4.73
2019-01-18T04:14:37.217Z,3.63
2019-01-18T04:17:04.697Z,3.50
2019-01-18T04:19:32.252Z,3.90
2019-01-18T04:21:59.719Z,3.27
2019-01-18T04:24:27.388Z,4.17
2019-01-18T04:26:55.020Z,3.53
2019-01-18T04:29:22.564Z,3.83
2019-01-18T04:31:50.128Z,3.67
2019-01-18T04:34:17.760Z,3.20
2019-01-18T04:36:45.770Z,3.40
2019-01-18T04:39:13.528Z,3.60
2019-01-18T04:41:41.285Z,3.73
2019-01-18T04:44:08.902Z,5.13
2019-01-18T04:46:36.472Z,5.53
2019-01-18T04:49:04.119Z,7.57
2019-01-18T04:51:33.873Z,5.90
2019-01-18T04:54:02.043Z,5.70
2019-01-18T04:56:29.753Z,5.33
2019-01-18T04:58:58.008Z,4.10
2019-01-18T05:01:25.578Z,3.70
2019-01-18T05:03:53.128Z,4.47
2019-01-18T05:06:20.657Z,4.97
2019-01-18T05:08:48.215Z,4.80
2019-01-18T05:11:16.583Z,3.50
2019-01-18T05:13:44.128Z,4.53
2019-01-18T05:16:11.920Z,4.10
2019-01-18T05:18:39.512Z,3.57
2019-01-18T05:21:07.474Z,4.33
2019-01-18T05:23:35.364Z,4.47
2019-01-18T05:26:03.638Z,3.50
2019-01-18T05:28:31.167Z,4.20
2019-01-18T05:30:58.695Z,4.50
2019-01-18T05:33:26.252Z,4.80
2019-01-18T05:35:53.907Z,4.10
2019-01-18T05:38:21.640Z,4.50
2019-01-18T05:40:49.487Z,3.90
2019-01-18T05:43:17.355Z,4.30
2019-01-18T05:45:45.180Z,5.40
2019-01-18T05:48:12.932Z,4.90
2019-01-18T05:50:40.821Z,4.80
2019-01-18T05:53:09.283Z,5.13
2019-01-18T05:55:37.112Z,5.40
2019-01-18T05:58:05.138Z,4.33
2019-01-18T06:00:37.763Z,5.13
2019-01-18T06:03:05.764Z,5.87
2019-01-18T06:05:35.366Z,5.40
2019-01-18T06:08:06.765Z,6.57
2019-01-18T06:10:34.609Z,5.47
2019-01-18T06:13:02.206Z,4.90
2019-01-18T06:15:30.120Z,5.87
2019-01-18T06:17:59.767Z,5.30
2019-01-18T06:20:28.596Z,4.63
2019-01-18T06:22:56.357Z,6.03
2019-01-18T06:25:24.776Z,5.20
2019-01-18T06:27:52.394Z,4.70
2019-01-18T06:30:28.797Z,5.40
2019-01-18T06:32:56.801Z,5.53
2019-01-18T06:35:24.597Z,5.23
2019-01-18T06:37:52.265Z,5.10
2019-01-18T06:40:20.043Z,6.40
2019-01-18T06:42:47.937Z,5.37
2019-01-18T06:45:28.299Z,5.80
2019-01-18T06:47:56.109Z,4.67
2019-01-18T06:50:23.989Z,5.87
2019-01-18T06:53:15.019Z,5.20
2019-01-18T06:55:42.929Z,5.00
2019-01-18T06:58:10.522Z,7.90
2019-01-18T07:00:38.336Z,7.20
2019-01-18T07:03:05.952Z,7.10
2019-01-18T07:05:33.488Z,5.20
2019-01-18T07:08:01.242Z,5.03
2019-01-18T07:10:30.448Z,5.90
2019-01-18T07:12:58.205Z,5.60
2019-01-18T07:15:26.053Z,5.90
2019-01-18T07:17:53.733Z,5.73
2019-01-18T07:20:21.260Z,5.00
2019-01-18T07:22:49.721Z,6.00
2019-01-18T07:25:28.206Z,5.63
2019-01-18T07:27:55.928Z,6.30
2019-01-18T07:30:37.837Z,6.30
2019-01-18T07:33:08.035Z,4.93
2019-01-18T07:35:35.609Z,6.10
2019-01-18T07:38:03.282Z,6.30
2019-01-18T07:40:30.915Z,6.20
2019-01-18T07:42:58.404Z,6.50
2019-01-18T07:45:27.079Z,7.40
2019-01-18T07:47:54.672Z,6.10
2019-01-18T07:50:22.143Z,5.90
2019-01-18T07:52:49.988Z,5.97
2019-01-18T07:55:17.505Z,6.63
2019-01-18T07:57:44.990Z,8.60
2019-01-18T08:00:15.472Z,6.80
2019-01-18T08:02:42.987Z,6.60
2019-01-18T08:05:10.444Z,7.20
2019-01-18T08:07:38.189Z,6.63
2019-01-18T08:10:09.168Z,7.23
2019-01-18T08:12:36.627Z,8.47
2019-01-18T08:15:05.145Z,6.93
2019-01-18T08:17:32.600Z,8.20
2019-01-18T08:20:00.164Z,7.27
2019-01-18T08:22:27.545Z,7.77
2019-01-18T08:24:55.040Z,7.53
2019-01-18T08:27:22.507Z,6.93
2019-01-18T08:29:49.992Z,7.70
2019-01-18T08:32:17.448Z,6.70
2019-01-18T08:34:45.055Z,7.00
2019-01-18T08:37:12.592Z,5.90
2019-01-18T08:39:40.313Z,6.70
2019-01-18T08:42:07.887Z,7.23
2019-01-18T08:44:35.624Z,7.20
2019-01-18T08:47:03.465Z,7.30
2019-01-18T08:49:31.140Z,7.83
2019-01-18T08:51:59.368Z,8.60
2019-01-18T08:54:27.220Z,8.30
2019-01-18T08:56:54.912Z,7.67
2019-01-18T08:59:22.849Z,7.23
2019-01-18T09:01:50.456Z,6.20
2019-01-18T09:04:17.984Z,8.23
2019-01-18T09:06:45.473Z,6.87
2019-01-18T09:09:12.965Z,7.07
2019-01-18T09:11:40.510Z,7.53
2019-01-18T09:14:08.028Z,9.10
2019-01-18T09:16:35.612Z,7.60
2019-01-18T09:19:03.174Z,7.43
2019-01-18T09:21:30.632Z,6.77
2019-01-18T09:23:58.124Z,6.87
2019-01-18T09:26:26.064Z,6.30
2019-01-18T09:28:53.692Z,7.10
2019-01-18T09:31:21.180Z,7.30
2019-01-18T09:33:48.780Z,6.43
2019-01-18T09:36:16.248Z,6.60
2019-01-18T09:38:43.725Z,7.13
2019-01-18T09:41:11.160Z,7.17
2019-01-18T09:43:38.616Z,6.30
2019-01-18T09:46:06.369Z,6.33
2019-01-18T09:48:33.896Z,7.30
2019-01-18T09:51:01.354Z,6.10
2019-01-18T09:53:28.822Z,5.13
2019-01-18T09:55:56.324Z,5.70
2019-01-18T09:58:23.825Z,5.27
2019-01-18T10:00:51.655Z,6.10
2019-01-18T10:03:19.498Z,5.50
2019-01-18T10:05:48.084Z,5.77
2019-01-18T10:08:15.911Z,5.77
2019-01-18T10:10:44.200Z,5.77
2019-01-18T10:13:12.239Z,5.67
2019-01-18T10:15:44.948Z,6.07
2019-01-18T10:18:13.727Z,6.33
2019-01-18T10:20:42.043Z,5.27
2019-01-18T10:23:10.017Z,5.90
2019-01-18T10:25:37.650Z,5.60
2019-01-18T10:28:05.350Z,6.87
2019-01-18T10:30:33.281Z,6.20
2019-01-18T10:33:01.046Z,5.93
2019-01-18T10:35:28.716Z,6.30
2019-01-18T10:37:56.456Z,6.10
2019-01-18T10:40:24.497Z,6.97
2019-01-18T10:42:52.272Z,5.53
2019-01-18T10:45:20.344Z,5.30
2019-01-18T10:47:48.259Z,6.20
2019-01-18T10:50:18.005Z,5.47
2019-01-18T10:52:45.945Z,5.60
2019-01-18T10:55:13.428Z,5.10
2019-01-18T10:57:41.102Z,6.57
2019-01-18T11:00:21.681Z,4.73
2019-01-18T11:02:50.017Z,5.67
2019-01-18T11:05:17.883Z,5.30
2019-01-18T11:07:45.484Z,5.40
2019-01-18T11:10:13.188Z,5.83
2019-01-18T11:12:40.868Z,6.23
2019-01-18T11:15:10.472Z,5.17
2019-01-18T11:17:38.088Z,4.93
2019-01-18T11:20:09.959Z,4.67
2019-01-18T11:22:37.533Z,5.40
2019-01-18T11:25:06.034Z,5.80
2019-01-18T11:27:33.789Z,6.07
2019-01-18T11:30:01.785Z,5.43
2019-01-18T11:32:29.509Z,6.20
2019-01-18T11:34:57.433Z,4.90
2019-01-18T11:37:25.040Z,5.20
2019-01-18T11:39:53.649Z,5.83
2019-01-18T11:42:21.217Z,6.30
2019-01-18T11:44:48.748Z,5.97
2019-01-18T11:47:16.321Z,6.70
2019-01-18T11:49:43.787Z,7.63
2019-01-18T11:52:11.689Z,5.90
2019-01-18T11:54:39.457Z,4.83
2019-01-18T11:57:07.012Z,6.53
2019-01-18T11:59:34.794Z,6.50
2019-01-18T12:02:03.056Z,6.17
2019-01-18T12:04:30.502Z,7.23
2019-01-18T12:06:58.085Z,6.40
2019-01-18T12:09:25.988Z,7.43
2019-01-18T12:11:53.480Z,6.73
2019-01-18T12:14:20.992Z,6.17
2019-01-18T12:16:50.278Z,6.27
2019-01-18T12:19:18.709Z,6.03
2019-01-18T12:21:47.939Z,7.53
2019-01-18T12:24:18.059Z,7.57
2019-01-18T12:26:46.224Z,7.73
2019-01-18T12:29:14.803Z,9.03
2019-01-18T12:31:43.574Z,8.03
2019-01-18T12:34:11.954Z,8.23
2019-01-18T12:36:39.928Z,7.73
2019-01-18T12:39:10.025Z,9.17
2019-01-18T12:41:38.671Z,9.77
2019-01-18T12:44:07.056Z,9.57
2019-01-18T12:46:35.628Z,8.40
2019-01-18T12:49:04.556Z,8.00
2019-01-18T12:51:34.045Z,9.17
2019-01-18T12:54:08.405Z,9.13
2019-01-18T12:59:47.914Z,9.33
2019-01-18T13:02:16.042Z,8.10
2019-01-18T13:04:43.751Z,8.10
2019-01-18T13:07:11.304Z,7.03
2019-01-18T13:09:39.023Z,6.60
2019-01-18T13:12:07.809Z,6.57
2019-01-18T13:14:35.737Z,6.37
2019-01-18T13:17:03.802Z,5.63
2019-01-18T13:19:31.855Z,5.77
2019-01-18T13:22:00.777Z,5.70
2019-01-18T13:24:28.763Z,6.57
2019-01-18T13:26:58.614Z,6.77
2019-01-18T13:29:50.701Z,6.07
2019-01-18T13:32:24.945Z,6.90
2019-01-18T13:34:59.405Z,6.70
2019-01-18T13:37:27.994Z,6.53
2019-01-18T13:39:56.483Z,5.50
2019-01-18T13:42:24.302Z,5.50
2019-01-18T13:44:52.865Z,6.47
2019-01-18T13:47:21.519Z,5.60
2019-01-18T13:49:52.795Z,5.87
2019-01-18T13:52:21.258Z,7.13
2019-01-18T13:54:49.425Z,6.80
2019-01-18T13:57:18.219Z,8.63
2019-01-18T13:59:46.354Z,6.40
2019-01-18T14:02:14.798Z,6.47
2019-01-18T14:04:42.841Z,7.00
2019-01-18T14:07:10.904Z,4.80
2019-01-18T14:09:39.237Z,5.47
2019-01-18T14:12:07.619Z,4.10
2019-01-18T14:14:35.675Z,4.70
2019-01-18T14:17:03.217Z,6.10
2019-01-18T14:19:31.466Z,6.83
2019-01-18T14:21:59.429Z,5.57
2019-01-18T14:24:29.973Z,5.70
2019-01-18T14:26:57.600Z,4.90
2019-01-18T14:29:25.749Z,5.47
2019-01-18T14:31:53.409Z,3.90
2019-01-18T14:34:21.656Z,4.40
2019-01-18T14:36:52.833Z,5.47
2019-01-18T14:39:20.481Z,4.50
2019-01-18T14:42:03.135Z,5.63
2019-01-18T14:44:31.379Z,6.07
2019-01-18T14:47:04.979Z,6.00
2019-01-18T14:49:43.243Z,7.53
2019-01-18T14:52:33.953Z,6.07
2019-01-18T14:55:03.687Z,6.27
2019-01-18T14:57:31.811Z,5.90
2019-01-18T15:00:01.081Z,6.47
2019-01-18T15:02:32.659Z,6.27
2019-01-18T15:05:08.679Z,5.90
2019-01-18T15:07:38.564Z,5.53
2019-01-18T15:10:09.478Z,4.50
2019-01-18T15:12:37.445Z,6.80
2019-01-18T15:15:07.480Z,6.87
2019-01-18T15:17:53.162Z,5.80
2019-01-18T15:20:25.399Z,7.07
2019-01-18T15:22:55.088Z,4.07
2019-01-18T15:25:22.909Z,4.40
2019-01-18T15:28:00.966Z,5.03
2019-01-18T15:30:32.786Z,5.37
2019-01-18T15:33:09.019Z,5.07
2019-01-18T15:35:37.063Z,5.37
2019-01-18T15:38:27.971Z,4.23
2019-01-18T15:41:07.682Z,4.50
2019-01-18T15:43:35.447Z,4.97
2019-01-18T15:46:04.032Z,4.80
2019-01-18T15:48:52.072Z,5.83
2019-01-18T15:51:21.614Z,6.73
2019-01-18T15:53:53.196Z,6.57
2019-01-18T15:56:21.163Z,6.17
2019-01-18T15:58:48.722Z,7.73
2019-01-18T16:01:19.376Z,7.53
2019-01-18T16:03:51.956Z,7.37
2019-01-18T16:06:30.071Z,7.07
2019-01-18T16:08:59.314Z,9.40
2019-01-18T16:11:27.116Z,8.10
2019-01-18T16:13:59.153Z,8.27
2019-01-18T16:16:31.288Z,8.77
2019-01-18T16:19:00.103Z,9.10
2019-01-18T16:21:29.942Z,9.30
2019-01-18T16:23:58.137Z,9.00
2019-01-18T16:26:25.636Z,9.03
2019-01-18T16:28:53.097Z,11.80
2019-01-18T16:31:20.597Z,16.53
2019-01-18T16:33:48.426Z,12.90
2019-01-18T16:36:31.760Z,15.73
2019-01-18T16:38:59.293Z,18.20
2019-01-18T16:41:32.696Z,17.53
2019-01-18T16:44:00.261Z,16.97
2019-01-18T16:46:28.051Z,15.67
2019-01-18T16:48:55.516Z,16.70
2019-01-18T16:51:23.129Z,15.30
2019-01-18T16:53:50.664Z,17.73
2019-01-18T16:56:18.620Z,18.43
2019-01-18T16:58:46.096Z,16.37
2019-01-18T17:01:14.592Z,16.53
2019-01-18T17:03:46.344Z,19.00
2019-01-18T17:06:15.010Z,18.90
2019-01-18T17:08:43.349Z,16.73
2019-01-18T17:11:11.495Z,18.70
2019-01-18T17:13:47.490Z,17.60
2019-01-18T17:16:16.045Z,15.87
2019-01-18T17:18:43.988Z,15.90
2019-01-18T17:22:25.260Z,17.60
2019-01-18T17:27:46.675Z,18.63
2019-01-18T17:30:26.901Z,19.27
2019-01-18T17:32:58.407Z,15.80
2019-01-18T17:35:39.481Z,13.67
2019-01-18T17:38:48.565Z,12.93
2019-01-18T17:42:12.059Z,13.23
2019-01-18T17:56:40.390Z,13.43
2019-01-18T18:00:01.739Z,13.93
2019-01-18T18:03:11.808Z,13.30
2019-01-18T18:06:02.365Z,12.33
2019-01-18T18:08:56.135Z,12.20
2019-01-18T18:12:17.722Z,15.10
2019-01-18T18:15:31.553Z,15.83
2019-01-18T18:18:10.009Z,15.70
2019-01-18T18:21:33.608Z,16.80
2019-01-18T18:25:09.022Z,12.57
2019-01-18T18:28:35.885Z,13.70
2019-01-18T18:31:50.412Z,13.90
2019-01-18T18:35:17.945Z,15.20
2019-01-18T18:38:54.586Z,13.67
2019-01-18T18:57:46.275Z,17.60
2019-01-18T19:00:59.027Z,18.60
2019-01-18T19:29:17.921Z,19.40
2019-01-18T19:36:19.472Z,20.00
2019-01-18T19:39:53.581Z,18.50
2019-01-18T19:43:25.354Z,17.80
2019-01-18T19:46:28.469Z,18.97
2019-01-18T19:49:46.657Z,19.97
2019-01-18T19:52:36.720Z,16.67
2019-01-18T19:55:47.989Z,17.70
2019-01-18T19:58:57.038Z,16.97
2019-01-18T20:02:44.854Z,19.53
2019-01-18T20:13:53.654Z,18.23
2019-01-18T20:21:06.801Z,16.93
2019-01-18T20:24:37.687Z,16.20
2019-01-18T20:39:54.629Z,17.50
2019-01-18T20:59:13.079Z,19.40
2019-01-18T21:23:19.334Z,20.10
2019-01-18T21:26:31.589Z,18.87
2019-01-18T21:41:38.739Z,19.63
2019-01-18T21:45:07.531Z,19.13
2019-01-18T21:48:38.598Z,19.73
2019-01-18T22:09:34.962Z,25.13
2019-01-18T22:16:16.059Z,21.13
2019-01-18T22:19:33.571Z,20.70
2019-01-18T22:22:49.098Z,17.43
2019-01-18T22:26:25.673Z,19.50
2019-01-18T22:33:37.580Z,18.70
2019-01-18T22:37:08.881Z,20.07
2019-01-18T22:40:38.714Z,19.23
2019-01-18T22:44:07.509Z,18.87
2019-01-18T22:55:08.497Z,18.53
2019-01-18T23:05:10.928Z,17.73
2019-01-18T23:08:29.412Z,19.87
2019-01-18T23:11:48.801Z,16.00
2019-01-18T23:15:15.871Z,19.17
2019-01-18T23:18:16.203Z,17.90
2019-01-18T23:21:39.398Z,16.47
2019-01-18T23:24:42.550Z,16.93
2019-01-18T23:27:49.268Z,15.67
2019-01-18T23:30:48.801Z,18.00
2019-01-18T23:33:57.090Z,18.07
2019-01-18T23:36:53.533Z,16.60
2019-01-18T23:40:11.537Z,20.23
2019-01-18T23:43:16.397Z,18.40
2019-01-18T23:46:29.005Z,17.57
2019-01-18T23:49:30.429Z,18.30
2019-01-18T23:53:44.128Z,18.00
